sensor_id;sensor_type;location;lat;lon;timestamp;temperature;humidity
3190;DHT22;1606;51.946;10.558;2024-03-22T00:02:08;11.50;99.90
3190;DHT22;1606;51.946;10.558;2024-03-22T00:04:35;11.60;99.90
3190;DHT22;1606;51.946;10.558;2024-03-22T00:07:02;11.60;99.90
3190;DHT22;1606;51.946;10.558;2024-03-22T00:09:29;11.50;99.90
3190;DHT22;1606;51.946;10.558;2024-03-22T00:11:55;11.60;99.90
3190;DHT22;1606;51.946;10.558;2024-03-22T00:14:22;11.70;99.90
3190;DHT22;1606;51.946;10.558;2024-03-22T00:16:48;11.70;99.90
3190;DHT22;1606;51.946;10.558;2024-03-22T00:19:17;11.70;99.90
3190;DHT22;1606;51.946;10.558;2024-03-22T00:21:43;11.80;99.90
3190;DHT22;1606;51.946;10.558;2024-03-22T00:24:09;11.90;99.90
3190;DHT22;1606;51.946;10.558;2024-03-22T00:26:36;12.00;99.90
3190;DHT22;1606;51.946;10.558;2024-03-22T00:29:03;12.10;99.90
3190;DHT22;1606;51.946;10.558;2024-03-22T00:31:29;12.10;99.90
3190;DHT22;1606;51.946;10.558;2024-03-22T00:33:56;12.10;99.90
3190;DHT22;1606;51.946;10.558;2024-03-22T00:36:23;12.10;99.90
3190;DHT22;1606;51.946;10.558;2024-03-22T00:38:50;12.10;99.90
3190;DHT22;1606;51.946;10.558;2024-03-22T00:41:16;12.00;99.90
3190;DHT22;1606;51.946;10.558;2024-03-22T00:43:43;12.00;99.90
3190;DHT22;1606;51.946;10.558;2024-03-22T00:46:09;12.00;99.90
3190;DHT22;1606;51.946;10.558;2024-03-22T00:48:36;12.10;99.90
3190;DHT22;1606;51.946;10.558;2024-03-22T00:51:02;12.10;99.90
3190;DHT22;1606;51.946;10.558;2024-03-22T00:53:31;12.20;99.90
3190;DHT22;1606;51.946;10.558;2024-03-22T00:55:57;12.20;99.90
3190;DHT22;1606;51.946;10.558;2024-03-22T00:58:26;12.20;99.90
3190;DHT22;1606;51.946;10.558;2024-03-22T01:00:52;12.20;99.90
3190;DHT22;1606;51.946;10.558;2024-03-22T01:03:19;12.20;99.90
3190;DHT22;1606;51.946;10.558;2024-03-22T01:05:45;12.20;99.90
3190;DHT22;1606;51.946;10.558;2024-03-22T01:08:12;12.30;99.90
3190;DHT22;1606;51.946;10.558;2024-03-22T01:10:40;12.40;99.90
3190;DHT22;1606;51.946;10.558;2024-03-22T01:13:07;12.50;99.90
3190;DHT22;1606;51.946;10.558;2024-03-22T01:15:33;12.50;99.90
3190;DHT22;1606;51.946;10.558;2024-03-22T01:18:00;12.40;99.90
3190;DHT22;1606;51.946;10.558;2024-03-22T01:20:25;12.50;99.90
3190;DHT22;1606;51.946;10.558;2024-03-22T01:22:53;12.60;99.90
3190;DHT22;1606;51.946;10.558;2024-03-22T01:25:18;12.60;99.90
3190;DHT22;1606;51.946;10.558;2024-03-22T01:27:47;12.70;99.90
3190;DHT22;1606;51.946;10.558;2024-03-22T01:30:13;12.70;99.90
3190;DHT22;1606;51.946;10.558;2024-03-22T01:32:40;12.50;99.90
3190;DHT22;1606;51.946;10.558;2024-03-22T01:35:06;12.50;99.90
3190;DHT22;1606;51.946;10.558;2024-03-22T01:37:33;12.60;99.90
3190;DHT22;1606;51.946;10.558;2024-03-22T01:39:59;12.50;99.90
3190;DHT22;1606;51.946;10.558;2024-03-22T01:42:26;12.50;99.90
3190;DHT22;1606;51.946;10.558;2024-03-22T01:44:53;12.50;99.90
3190;DHT22;1606;51.946;10.558;2024-03-22T01:47:20;12.00;99.90
3190;DHT22;1606;51.946;10.558;2024-03-22T01:49:47;12.10;99.90
3190;DHT22;1606;51.946;10.558;2024-03-22T01:52:14;12.20;99.90
3190;DHT22;1606;51.946;10.558;2024-03-22T01:54:40;12.40;99.90
3190;DHT22;1606;51.946;10.558;2024-03-22T01:57:08;12.60;99.90
3190;DHT22;1606;51.946;10.558;2024-03-22T01:59:34;12.60;99.90
3190;DHT22;1606;51.946;10.558;2024-03-22T02:02:03;12.80;99.90
3190;DHT22;1606;51.946;10.558;2024-03-22T02:04:29;12.90;99.90
3190;DHT22;1606;51.946;10.558;2024-03-22T02:06:56;12.80;99.90
3190;DHT22;1606;51.946;10.558;2024-03-22T02:09:22;12.80;99.90
3190;DHT22;1606;51.946;10.558;2024-03-22T02:11:49;12.90;99.90
3190;DHT22;1606;51.946;10.558;2024-03-22T02:14:15;12.90;99.90
3190;DHT22;1606;51.946;10.558;2024-03-22T02:16:42;12.90;99.90
3190;DHT22;1606;51.946;10.558;2024-03-22T02:19:09;12.90;99.90
3190;DHT22;1606;51.946;10.558;2024-03-22T02:21:36;13.00;99.90
3190;DHT22;1606;51.946;10.558;2024-03-22T02:24:04;13.00;99.90
3190;DHT22;1606;51.946;10.558;2024-03-22T02:26:31;12.90;99.90
3190;DHT22;1606;51.946;10.558;2024-03-22T02:28:57;12.60;99.90
3190;DHT22;1606;51.946;10.558;2024-03-22T02:31:24;12.20;99.90
3190;DHT22;1606;51.946;10.558;2024-03-22T02:33:51;12.60;99.90
3190;DHT22;1606;51.946;10.558;2024-03-22T02:36:18;12.40;99.90
3190;DHT22;1606;51.946;10.558;2024-03-22T02:38:44;12.60;99.90
3190;DHT22;1606;51.946;10.558;2024-03-22T02:41:12;12.70;99.90
3190;DHT22;1606;51.946;10.558;2024-03-22T02:43:38;12.90;99.90
3190;DHT22;1606;51.946;10.558;2024-03-22T02:46:05;12.90;99.90
3190;DHT22;1606;51.946;10.558;2024-03-22T02:48:31;13.00;99.90
3190;DHT22;1606;51.946;10.558;2024-03-22T02:50:58;13.10;99.90
3190;DHT22;1606;51.946;10.558;2024-03-22T02:53:24;13.20;99.90
3190;DHT22;1606;51.946;10.558;2024-03-22T02:55:51;13.10;99.90
3190;DHT22;1606;51.946;10.558;2024-03-22T02:58:20;13.30;99.90
3190;DHT22;1606;51.946;10.558;2024-03-22T03:00:47;13.30;99.90
3190;DHT22;1606;51.946;10.558;2024-03-22T03:03:13;13.20;99.90
3190;DHT22;1606;51.946;10.558;2024-03-22T03:05:40;13.10;99.90
3190;DHT22;1606;51.946;10.558;2024-03-22T03:08:07;13.10;99.90
3190;DHT22;1606;51.946;10.558;2024-03-22T03:10:34;13.20;99.90
3190;DHT22;1606;51.946;10.558;2024-03-22T03:13:01;13.30;99.90
3190;DHT22;1606;51.946;10.558;2024-03-22T03:15:29;13.30;99.90
3190;DHT22;1606;51.946;10.558;2024-03-22T03:17:55;13.40;99.90
3190;DHT22;1606;51.946;10.558;2024-03-22T03:20:22;13.20;99.90
3190;DHT22;1606;51.946;10.558;2024-03-22T03:22:48;13.30;99.90
3190;DHT22;1606;51.946;10.558;2024-03-22T03:25:15;13.20;99.90
3190;DHT22;1606;51.946;10.558;2024-03-22T03:27:41;13.10;99.90
3190;DHT22;1606;51.946;10.558;2024-03-22T03:30:08;13.30;99.90
3190;DHT22;1606;51.946;10.558;2024-03-22T03:32:36;13.20;99.90
3190;DHT22;1606;51.946;10.558;2024-03-22T03:35:03;13.20;99.90
3190;DHT22;1606;51.946;10.558;2024-03-22T03:37:30;13.20;99.90
3190;DHT22;1606;51.946;10.558;2024-03-22T03:39:57;13.20;99.90
3190;DHT22;1606;51.946;10.558;2024-03-22T03:42:23;13.00;99.90
3190;DHT22;1606;51.946;10.558;2024-03-22T03:44:50;13.00;99.90
3190;DHT22;1606;51.946;10.558;2024-03-22T03:47:16;12.90;99.90
3190;DHT22;1606;51.946;10.558;2024-03-22T03:49:46;12.90;99.90
3190;DHT22;1606;51.946;10.558;2024-03-22T03:52:12;13.00;99.90
3190;DHT22;1606;51.946;10.558;2024-03-22T03:54:39;13.00;99.90
3190;DHT22;1606;51.946;10.558;2024-03-22T03:57:05;12.70;99.90
3190;DHT22;1606;51.946;10.558;2024-03-22T03:59:32;12.70;99.90
3190;DHT22;1606;51.946;10.558;2024-03-22T04:01:58;12.90;99.90
3190;DHT22;1606;51.946;10.558;2024-03-22T04:04:24;12.90;99.90
3190;DHT22;1606;51.946;10.558;2024-03-22T04:06:52;13.10;99.90
3190;DHT22;1606;51.946;10.558;2024-03-22T04:09:19;13.10;99.90
3190;DHT22;1606;51.946;10.558;2024-03-22T04:11:45;13.10;99.90
3190;DHT22;1606;51.946;10.558;2024-03-22T04:14:13;13.00;99.90
3190;DHT22;1606;51.946;10.558;2024-03-22T04:16:39;13.00;99.90
3190;DHT22;1606;51.946;10.558;2024-03-22T04:19:06;13.00;99.90
3190;DHT22;1606;51.946;10.558;2024-03-22T04:21:32;12.90;99.90
3190;DHT22;1606;51.946;10.558;2024-03-22T04:24:00;12.90;99.90
3190;DHT22;1606;51.946;10.558;2024-03-22T04:26:26;13.10;99.90
3190;DHT22;1606;51.946;10.558;2024-03-22T04:28:52;13.00;99.90
3190;DHT22;1606;51.946;10.558;2024-03-22T04:31:18;13.00;99.90
3190;DHT22;1606;51.946;10.558;2024-03-22T04:33:45;13.00;99.90
3190;DHT22;1606;51.946;10.558;2024-03-22T04:36:11;12.90;99.90
3190;DHT22;1606;51.946;10.558;2024-03-22T04:38:38;12.80;99.90
3190;DHT22;1606;51.946;10.558;2024-03-22T04:41:06;12.90;99.90
3190;DHT22;1606;51.946;10.558;2024-03-22T04:43:33;12.80;99.90
3190;DHT22;1606;51.946;10.558;2024-03-22T04:45:59;13.00;99.90
3190;DHT22;1606;51.946;10.558;2024-03-22T04:48:26;12.90;99.90
3190;DHT22;1606;51.946;10.558;2024-03-22T04:50:53;12.80;99.90
3190;DHT22;1606;51.946;10.558;2024-03-22T04:53:20;13.00;99.90
3190;DHT22;1606;51.946;10.558;2024-03-22T04:55:47;13.00;99.90
3190;DHT22;1606;51.946;10.558;2024-03-22T04:58:16;13.00;99.90
3190;DHT22;1606;51.946;10.558;2024-03-22T05:00:43;13.00;99.90
3190;DHT22;1606;51.946;10.558;2024-03-22T05:03:11;13.00;99.90
3190;DHT22;1606;51.946;10.558;2024-03-22T05:05:37;13.00;99.90
3190;DHT22;1606;51.946;10.558;2024-03-22T05:08:05;13.00;99.90
3190;DHT22;1606;51.946;10.558;2024-03-22T05:10:31;13.10;99.90
3190;DHT22;1606;51.946;10.558;2024-03-22T05:12:58;13.10;99.90
3190;DHT22;1606;51.946;10.558;2024-03-22T05:15:25;13.10;99.90
3190;DHT22;1606;51.946;10.558;2024-03-22T05:17:53;13.10;99.90
3190;DHT22;1606;51.946;10.558;2024-03-22T05:20:19;13.20;99.90
3190;DHT22;1606;51.946;10.558;2024-03-22T05:22:46;13.00;99.90
3190;DHT22;1606;51.946;10.558;2024-03-22T05:25:12;12.80;99.90
3190;DHT22;1606;51.946;10.558;2024-03-22T05:27:40;12.50;99.90
3190;DHT22;1606;51.946;10.558;2024-03-22T05:30:08;12.60;99.90
3190;DHT22;1606;51.946;10.558;2024-03-22T05:32:36;12.90;99.90
3190;DHT22;1606;51.946;10.558;2024-03-22T05:35:04;13.00;99.90
3190;DHT22;1606;51.946;10.558;2024-03-22T05:37:31;13.10;99.90
3190;DHT22;1606;51.946;10.558;2024-03-22T05:39:58;12.80;99.90
3190;DHT22;1606;51.946;10.558;2024-03-22T05:42:24;13.00;99.90
3190;DHT22;1606;51.946;10.558;2024-03-22T05:44:51;13.00;99.90
3190;DHT22;1606;51.946;10.558;2024-03-22T05:47:18;13.00;99.90
3190;DHT22;1606;51.946;10.558;2024-03-22T05:49:47;12.80;99.90
3190;DHT22;1606;51.946;10.558;2024-03-22T05:52:13;12.90;99.90
3190;DHT22;1606;51.946;10.558;2024-03-22T05:54:40;13.00;99.90
3190;DHT22;1606;51.946;10.558;2024-03-22T05:57:07;13.10;99.90
3190;DHT22;1606;51.946;10.558;2024-03-22T05:59:34;13.10;99.90
3190;DHT22;1606;51.946;10.558;2024-03-22T06:02:00;13.20;99.90
3190;DHT22;1606;51.946;10.558;2024-03-22T06:04:27;13.20;99.90
3190;DHT22;1606;51.946;10.558;2024-03-22T06:06:55;13.30;99.90
3190;DHT22;1606;51.946;10.558;2024-03-22T06:09:25;13.40;99.90
3190;DHT22;1606;51.946;10.558;2024-03-22T06:12:00;13.50;99.90
3190;DHT22;1606;51.946;10.558;2024-03-22T06:14:28;13.50;99.90
3190;DHT22;1606;51.946;10.558;2024-03-22T06:16:54;13.50;99.90
3190;DHT22;1606;51.946;10.558;2024-03-22T06:19:20;13.50;99.90
3190;DHT22;1606;51.946;10.558;2024-03-22T06:21:46;13.60;99.90
3190;DHT22;1606;51.946;10.558;2024-03-22T06:24:15;13.60;99.90
3190;DHT22;1606;51.946;10.558;2024-03-22T06:26:40;13.70;99.90
3190;DHT22;1606;51.946;10.558;2024-03-22T06:29:07;13.60;99.90
3190;DHT22;1606;51.946;10.558;2024-03-22T06:31:33;13.80;99.90
3190;DHT22;1606;51.946;10.558;2024-03-22T06:34:00;13.90;99.90
3190;DHT22;1606;51.946;10.558;2024-03-22T06:36:28;13.90;99.90
3190;DHT22;1606;51.946;10.558;2024-03-22T06:38:55;14.00;99.90
3190;DHT22;1606;51.946;10.558;2024-03-22T06:41:22;13.90;99.90
3190;DHT22;1606;51.946;10.558;2024-03-22T06:43:49;14.00;99.90
3190;DHT22;1606;51.946;10.558;2024-03-22T06:46:15;14.00;99.90
3190;DHT22;1606;51.946;10.558;2024-03-22T06:48:42;14.00;99.90
3190;DHT22;1606;51.946;10.558;2024-03-22T06:51:08;14.00;99.90
3190;DHT22;1606;51.946;10.558;2024-03-22T06:53:35;14.10;99.90
3190;DHT22;1606;51.946;10.558;2024-03-22T06:56:01;14.00;99.90
3190;DHT22;1606;51.946;10.558;2024-03-22T06:58:29;14.00;99.90
3190;DHT22;1606;51.946;10.558;2024-03-22T07:00:56;14.10;99.90
3190;DHT22;1606;51.946;10.558;2024-03-22T07:03:22;14.10;99.90
3190;DHT22;1606;51.946;10.558;2024-03-22T07:05:49;14.10;99.90
3190;DHT22;1606;51.946;10.558;2024-03-22T07:08:15;14.20;99.90
3190;DHT22;1606;51.946;10.558;2024-03-22T07:10:42;14.40;99.90
3190;DHT22;1606;51.946;10.558;2024-03-22T07:13:08;14.30;99.90
3190;DHT22;1606;51.946;10.558;2024-03-22T07:15:36;14.20;99.90
3190;DHT22;1606;51.946;10.558;2024-03-22T07:18:03;14.10;99.90
3190;DHT22;1606;51.946;10.558;2024-03-22T07:20:31;14.10;99.90
3190;DHT22;1606;51.946;10.558;2024-03-22T07:22:57;14.10;99.90
3190;DHT22;1606;51.946;10.558;2024-03-22T07:25:24;13.70;99.90
3190;DHT22;1606;51.946;10.558;2024-03-22T07:27:50;13.70;99.90
3190;DHT22;1606;51.946;10.558;2024-03-22T07:30:17;13.90;99.90
3190;DHT22;1606;51.946;10.558;2024-03-22T07:32:45;13.80;99.90
3190;DHT22;1606;51.946;10.558;2024-03-22T07:35:13;13.80;99.90
3190;DHT22;1606;51.946;10.558;2024-03-22T07:37:39;13.50;99.90
3190;DHT22;1606;51.946;10.558;2024-03-22T07:40:06;13.80;99.90
3190;DHT22;1606;51.946;10.558;2024-03-22T07:42:32;14.20;99.90
3190;DHT22;1606;51.946;10.558;2024-03-22T07:44:59;14.40;99.90
3190;DHT22;1606;51.946;10.558;2024-03-22T07:47:25;14.40;99.90
3190;DHT22;1606;51.946;10.558;2024-03-22T07:49:54;14.30;99.90
3190;DHT22;1606;51.946;10.558;2024-03-22T07:52:20;14.40;99.90
3190;DHT22;1606;51.946;10.558;2024-03-22T07:54:46;14.30;99.90
3190;DHT22;1606;51.946;10.558;2024-03-22T07:57:12;14.10;99.90
3190;DHT22;1606;51.946;10.558;2024-03-22T07:59:39;14.30;99.90
3190;DHT22;1606;51.946;10.558;2024-03-22T08:02:05;14.50;99.90
3190;DHT22;1606;51.946;10.558;2024-03-22T08:04:32;14.50;99.90
3190;DHT22;1606;51.946;10.558;2024-03-22T08:07:00;14.40;99.90
3190;DHT22;1606;51.946;10.558;2024-03-22T08:09:27;14.20;99.90
3190;DHT22;1606;51.946;10.558;2024-03-22T08:11:52;14.10;99.90
3190;DHT22;1606;51.946;10.558;2024-03-22T08:14:19;14.40;99.90
3190;DHT22;1606;51.946;10.558;2024-03-22T08:16:45;14.50;99.90
3190;DHT22;1606;51.946;10.558;2024-03-22T08:19:12;14.50;99.90
3190;DHT22;1606;51.946;10.558;2024-03-22T08:21:39;14.40;99.90
3190;DHT22;1606;51.946;10.558;2024-03-22T08:24:07;14.60;99.90
3190;DHT22;1606;51.946;10.558;2024-03-22T08:26:33;14.60;99.90
3190;DHT22;1606;51.946;10.558;2024-03-22T08:29:00;14.50;99.90
3190;DHT22;1606;51.946;10.558;2024-03-22T08:31:26;14.50;99.90
3190;DHT22;1606;51.946;10.558;2024-03-22T08:33:54;14.50;99.90
3190;DHT22;1606;51.946;10.558;2024-03-22T08:36:21;14.70;99.90
3190;DHT22;1606;51.946;10.558;2024-03-22T08:38:49;14.80;99.90
3190;DHT22;1606;51.946;10.558;2024-03-22T08:41:16;14.70;99.90
3190;DHT22;1606;51.946;10.558;2024-03-22T08:43:43;14.80;99.90
3190;DHT22;1606;51.946;10.558;2024-03-22T08:46:10;14.90;99.90
3190;DHT22;1606;51.946;10.558;2024-03-22T08:48:37;15.10;99.90
3190;DHT22;1606;51.946;10.558;2024-03-22T08:51:03;15.00;99.90
3190;DHT22;1606;51.946;10.558;2024-03-22T08:53:30;15.00;99.90
3190;DHT22;1606;51.946;10.558;2024-03-22T08:55:56;15.20;99.90
3190;DHT22;1606;51.946;10.558;2024-03-22T08:58:27;15.00;99.90
3190;DHT22;1606;51.946;10.558;2024-03-22T09:00:53;15.20;99.90
3190;DHT22;1606;51.946;10.558;2024-03-22T09:03:20;15.30;99.90
3190;DHT22;1606;51.946;10.558;2024-03-22T09:05:47;15.20;99.90
3190;DHT22;1606;51.946;10.558;2024-03-22T09:08:13;15.40;99.90
3190;DHT22;1606;51.946;10.558;2024-03-22T09:10:39;15.40;99.90
3190;DHT22;1606;51.946;10.558;2024-03-22T09:13:06;15.30;99.90
3190;DHT22;1606;51.946;10.558;2024-03-22T09:15:34;15.30;99.90
3190;DHT22;1606;51.946;10.558;2024-03-22T09:18:01;15.40;99.90
3190;DHT22;1606;51.946;10.558;2024-03-22T09:20:27;15.60;99.90
3190;DHT22;1606;51.946;10.558;2024-03-22T09:22:54;15.60;99.90
3190;DHT22;1606;51.946;10.558;2024-03-22T09:25:20;15.60;99.90
3190;DHT22;1606;51.946;10.558;2024-03-22T09:27:47;15.40;99.90
3190;DHT22;1606;51.946;10.558;2024-03-22T09:30:13;15.20;99.90
3190;DHT22;1606;51.946;10.558;2024-03-22T09:32:42;15.50;99.90
3190;DHT22;1606;51.946;10.558;2024-03-22T09:35:09;15.50;99.90
3190;DHT22;1606;51.946;10.558;2024-03-22T09:37:37;15.70;99.90
3190;DHT22;1606;51.946;10.558;2024-03-22T09:40:03;15.70;99.90
3190;DHT22;1606;51.946;10.558;2024-03-22T09:42:33;15.60;99.90
3190;DHT22;1606;51.946;10.558;2024-03-22T09:45:10;15.70;99.90
3190;DHT22;1606;51.946;10.558;2024-03-22T09:48:06;15.90;99.90
3190;DHT22;1606;51.946;10.558;2024-03-22T09:50:32;15.80;99.90
3190;DHT22;1606;51.946;10.558;2024-03-22T09:53:00;15.80;99.90
3190;DHT22;1606;51.946;10.558;2024-03-22T09:55:26;15.80;99.90
3190;DHT22;1606;51.946;10.558;2024-03-22T09:57:54;15.60;99.90
3190;DHT22;1606;51.946;10.558;2024-03-22T10:00:20;15.40;99.90
3190;DHT22;1606;51.946;10.558;2024-03-22T10:02:49;15.40;99.90
3190;DHT22;1606;51.946;10.558;2024-03-22T10:05:16;15.60;99.90
3190;DHT22;1606;51.946;10.558;2024-03-22T10:07:44;15.50;99.90
3190;DHT22;1606;51.946;10.558;2024-03-22T10:10:10;15.30;99.90
3190;DHT22;1606;51.946;10.558;2024-03-22T10:12:38;15.40;99.90
3190;DHT22;1606;51.946;10.558;2024-03-22T10:15:05;15.40;99.90
3190;DHT22;1606;51.946;10.558;2024-03-22T10:17:34;15.40;99.90
3190;DHT22;1606;51.946;10.558;2024-03-22T10:20:00;15.40;99.90
3190;DHT22;1606;51.946;10.558;2024-03-22T10:22:29;15.40;99.00
3190;DHT22;1606;51.946;10.558;2024-03-22T10:24:55;15.70;99.40
3190;DHT22;1606;51.946;10.558;2024-03-22T10:27:27;15.70;99.70
3190;DHT22;1606;51.946;10.558;2024-03-22T10:29:53;15.60;99.30
3190;DHT22;1606;51.946;10.558;2024-03-22T10:32:20;15.70;99.90
3190;DHT22;1606;51.946;10.558;2024-03-22T10:34:46;15.50;99.90
3190;DHT22;1606;51.946;10.558;2024-03-22T10:37:16;15.70;99.90
3190;DHT22;1606;51.946;10.558;2024-03-22T10:39:43;15.80;99.90
3190;DHT22;1606;51.946;10.558;2024-03-22T10:42:11;15.90;99.90
3190;DHT22;1606;51.946;10.558;2024-03-22T10:44:38;15.70;99.90
3190;DHT22;1606;51.946;10.558;2024-03-22T10:47:06;15.70;99.90
3190;DHT22;1606;51.946;10.558;2024-03-22T10:49:37;15.90;99.90
3190;DHT22;1606;51.946;10.558;2024-03-22T10:52:05;15.70;99.90
3190;DHT22;1606;51.946;10.558;2024-03-22T10:54:34;15.50;99.90
3190;DHT22;1606;51.946;10.558;2024-03-22T10:57:05;15.70;99.90
3190;DHT22;1606;51.946;10.558;2024-03-22T10:59:33;16.00;99.90
3190;DHT22;1606;51.946;10.558;2024-03-22T11:02:03;16.10;99.90
3190;DHT22;1606;51.946;10.558;2024-03-22T11:04:30;16.20;99.90
3190;DHT22;1606;51.946;10.558;2024-03-22T11:06:57;16.10;99.90
3190;DHT22;1606;51.946;10.558;2024-03-22T11:09:25;16.20;99.90
3190;DHT22;1606;51.946;10.558;2024-03-22T11:11:53;16.30;99.90
3190;DHT22;1606;51.946;10.558;2024-03-22T11:14:20;16.40;99.90
3190;DHT22;1606;51.946;10.558;2024-03-22T11:16:49;16.40;99.60
3190;DHT22;1606;51.946;10.558;2024-03-22T11:19:15;16.50;99.90
3190;DHT22;1606;51.946;10.558;2024-03-22T11:21:42;16.50;99.90
3190;DHT22;1606;51.946;10.558;2024-03-22T11:24:08;16.50;99.90
3190;DHT22;1606;51.946;10.558;2024-03-22T11:26:36;16.60;99.90
3190;DHT22;1606;51.946;10.558;2024-03-22T11:29:02;16.60;99.80
3190;DHT22;1606;51.946;10.558;2024-03-22T11:31:30;16.90;99.90
3190;DHT22;1606;51.946;10.558;2024-03-22T11:33:56;16.90;99.90
3190;DHT22;1606;51.946;10.558;2024-03-22T11:36:23;16.60;98.10
3190;DHT22;1606;51.946;10.558;2024-03-22T11:38:49;16.60;99.10
3190;DHT22;1606;51.946;10.558;2024-03-22T11:41:21;16.60;99.80
3190;DHT22;1606;51.946;10.558;2024-03-22T11:43:48;16.50;99.90
3190;DHT22;1606;51.946;10.558;2024-03-22T11:46:16;16.60;99.60
3190;DHT22;1606;51.946;10.558;2024-03-22T11:48:44;16.80;99.70
3190;DHT22;1606;51.946;10.558;2024-03-22T11:51:11;16.60;99.90
3190;DHT22;1606;51.946;10.558;2024-03-22T11:53:37;16.60;99.90
3190;DHT22;1606;51.946;10.558;2024-03-22T11:56:04;16.50;99.90
3190;DHT22;1606;51.946;10.558;2024-03-22T11:58:30;16.50;99.90
3190;DHT22;1606;51.946;10.558;2024-03-22T12:00:57;16.80;99.90
3190;DHT22;1606;51.946;10.558;2024-03-22T12:03:23;16.80;99.90
3190;DHT22;1606;51.946;10.558;2024-03-22T12:05:54;16.70;99.90
3190;DHT22;1606;51.946;10.558;2024-03-22T12:08:20;17.00;99.90
3190;DHT22;1606;51.946;10.558;2024-03-22T12:10:47;16.80;99.90
3190;DHT22;1606;51.946;10.558;2024-03-22T12:13:13;16.70;99.90
3190;DHT22;1606;51.946;10.558;2024-03-22T12:15:39;17.00;99.90
3190;DHT22;1606;51.946;10.558;2024-03-22T12:18:06;17.10;99.90
3190;DHT22;1606;51.946;10.558;2024-03-22T12:20:32;17.10;99.90
3190;DHT22;1606;51.946;10.558;2024-03-22T12:23:00;16.90;99.90
3190;DHT22;1606;51.946;10.558;2024-03-22T12:25:27;16.70;99.90
3190;DHT22;1606;51.946;10.558;2024-03-22T12:27:53;16.50;99.90
3190;DHT22;1606;51.946;10.558;2024-03-22T12:30:20;16.80;99.90
3190;DHT22;1606;51.946;10.558;2024-03-22T12:32:46;17.00;99.90
3190;DHT22;1606;51.946;10.558;2024-03-22T12:35:12;17.10;99.90
3190;DHT22;1606;51.946;10.558;2024-03-22T12:37:38;17.20;99.90
3190;DHT22;1606;51.946;10.558;2024-03-22T12:40:09;17.30;99.90
3190;DHT22;1606;51.946;10.558;2024-03-22T12:42:35;17.10;99.90
3190;DHT22;1606;51.946;10.558;2024-03-22T12:45:02;17.00;99.90
3190;DHT22;1606;51.946;10.558;2024-03-22T12:47:28;17.00;99.90
3190;DHT22;1606;51.946;10.558;2024-03-22T12:49:55;16.90;99.90
3190;DHT22;1606;51.946;10.558;2024-03-22T12:52:21;17.00;99.90
3190;DHT22;1606;51.946;10.558;2024-03-22T12:54:48;17.20;99.90
3190;DHT22;1606;51.946;10.558;2024-03-22T12:57:16;17.10;99.90
3190;DHT22;1606;51.946;10.558;2024-03-22T12:59:43;16.90;99.90
3190;DHT22;1606;51.946;10.558;2024-03-22T13:02:11;16.90;99.90
3190;DHT22;1606;51.946;10.558;2024-03-22T13:04:38;17.10;99.90
3190;DHT22;1606;51.946;10.558;2024-03-22T13:07:04;17.10;99.90
3190;DHT22;1606;51.946;10.558;2024-03-22T13:09:30;17.30;99.90
3190;DHT22;1606;51.946;10.558;2024-03-22T13:11:56;17.40;99.90
3190;DHT22;1606;51.946;10.558;2024-03-22T13:14:25;17.50;99.90
3190;DHT22;1606;51.946;10.558;2024-03-22T13:16:50;17.30;99.90
3190;DHT22;1606;51.946;10.558;2024-03-22T13:19:18;17.50;99.90
3190;DHT22;1606;51.946;10.558;2024-03-22T13:21:44;17.60;99.90
3190;DHT22;1606;51.946;10.558;2024-03-22T13:24:13;17.20;99.90
3190;DHT22;1606;51.946;10.558;2024-03-22T13:26:39;17.30;99.90
3190;DHT22;1606;51.946;10.558;2024-03-22T13:29:06;17.20;99.90
3190;DHT22;1606;51.946;10.558;2024-03-22T13:31:34;17.20;99.90
3190;DHT22;1606;51.946;10.558;2024-03-22T13:34:01;17.30;99.90
3190;DHT22;1606;51.946;10.558;2024-03-22T13:36:27;17.50;99.90
3190;DHT22;1606;51.946;10.558;2024-03-22T13:38:58;17.30;99.90
3190;DHT22;1606;51.946;10.558;2024-03-22T13:41:24;17.30;99.90
3190;DHT22;1606;51.946;10.558;2024-03-22T13:43:52;17.10;99.90
3190;DHT22;1606;51.946;10.558;2024-03-22T13:46:18;16.70;99.90
3190;DHT22;1606;51.946;10.558;2024-03-22T13:48:46;16.80;99.90
3190;DHT22;1606;51.946;10.558;2024-03-22T13:51:13;16.70;99.90
3190;DHT22;1606;51.946;10.558;2024-03-22T13:53:40;16.80;99.90
3190;DHT22;1606;51.946;10.558;2024-03-22T13:56:06;17.00;99.90
3190;DHT22;1606;51.946;10.558;2024-03-22T13:58:33;17.10;99.90
3190;DHT22;1606;51.946;10.558;2024-03-22T14:01:00;17.30;99.90
3190;DHT22;1606;51.946;10.558;2024-03-22T14:03:28;17.10;99.90
3190;DHT22;1606;51.946;10.558;2024-03-22T14:05:56;17.30;99.90
3190;DHT22;1606;51.946;10.558;2024-03-22T14:08:23;17.60;99.90
3190;DHT22;1606;51.946;10.558;2024-03-22T14:10:49;17.80;99.90
3190;DHT22;1606;51.946;10.558;2024-03-22T14:13:16;17.60;99.90
3190;DHT22;1606;51.946;10.558;2024-03-22T14:15:42;17.70;99.90
3190;DHT22;1606;51.946;10.558;2024-03-22T14:18:09;17.50;99.90
3190;DHT22;1606;51.946;10.558;2024-03-22T14:20:35;17.00;99.90
3190;DHT22;1606;51.946;10.558;2024-03-22T14:23:03;17.20;99.90
3190;DHT22;1606;51.946;10.558;2024-03-22T14:25:35;17.10;99.90
3190;DHT22;1606;51.946;10.558;2024-03-22T14:28:02;16.60;99.90
3190;DHT22;1606;51.946;10.558;2024-03-22T14:30:28;16.50;99.90
3190;DHT22;1606;51.946;10.558;2024-03-22T14:32:55;16.50;99.90
3190;DHT22;1606;51.946;10.558;2024-03-22T14:35:22;16.90;99.90
3190;DHT22;1606;51.946;10.558;2024-03-22T14:37:48;17.00;99.90
3190;DHT22;1606;51.946;10.558;2024-03-22T14:40:16;16.50;99.90
3190;DHT22;1606;51.946;10.558;2024-03-22T14:42:43;16.60;99.90
3190;DHT22;1606;51.946;10.558;2024-03-22T14:45:09;16.40;99.90
3190;DHT22;1606;51.946;10.558;2024-03-22T14:47:36;16.30;99.90
3190;DHT22;1606;51.946;10.558;2024-03-22T14:50:03;16.70;99.90
3190;DHT22;1606;51.946;10.558;2024-03-22T14:52:30;16.80;99.90
3190;DHT22;1606;51.946;10.558;2024-03-22T14:54:56;16.80;99.90
3190;DHT22;1606;51.946;10.558;2024-03-22T14:57:24;16.70;99.90
3190;DHT22;1606;51.946;10.558;2024-03-22T14:59:51;16.70;99.90
3190;DHT22;1606;51.946;10.558;2024-03-22T15:02:20;16.70;99.90
3190;DHT22;1606;51.946;10.558;2024-03-22T15:04:49;16.70;99.90
3190;DHT22;1606;51.946;10.558;2024-03-22T15:07:16;16.10;99.90
3190;DHT22;1606;51.946;10.558;2024-03-22T15:09:42;16.00;99.90
3190;DHT22;1606;51.946;10.558;2024-03-22T15:12:12;16.00;99.90
3190;DHT22;1606;51.946;10.558;2024-03-22T15:14:40;16.20;99.90
3190;DHT22;1606;51.946;10.558;2024-03-22T15:17:07;16.20;99.90
3190;DHT22;1606;51.946;10.558;2024-03-22T15:19:34;15.80;99.90
3190;DHT22;1606;51.946;10.558;2024-03-22T15:22:09;15.40;99.90
3190;DHT22;1606;51.946;10.558;2024-03-22T15:24:37;15.60;99.90
3190;DHT22;1606;51.946;10.558;2024-03-22T15:27:05;15.80;99.90
3190;DHT22;1606;51.946;10.558;2024-03-22T15:29:34;15.60;99.90
3190;DHT22;1606;51.946;10.558;2024-03-22T15:32:05;15.10;99.90
3190;DHT22;1606;51.946;10.558;2024-03-22T15:34:32;14.20;99.90
3190;DHT22;1606;51.946;10.558;2024-03-22T15:36:59;14.50;99.90
3190;DHT22;1606;51.946;10.558;2024-03-22T15:39:26;14.40;99.90
3190;DHT22;1606;51.946;10.558;2024-03-22T15:41:53;14.70;99.90
3190;DHT22;1606;51.946;10.558;2024-03-22T15:44:18;14.70;99.90